createdAt,value
2022-12-15T00:03:53.519Z,-3.37
2022-12-15T00:09:02.497Z,-3.31
2022-12-15T00:14:11.443Z,-3.31
2022-12-15T00:19:20.544Z,-3.31
2022-12-15T00:24:29.484Z,-3.37
2022-12-15T00:29:38.412Z,-3.31
2022-12-15T00:34:47.515Z,-3.31
2022-12-15T00:39:56.311Z,-3.31
2022-12-15T00:45:05.480Z,-3.25
2022-12-15T00:50:14.412Z,-3.31
2022-12-15T00:55:23.510Z,-3.37
2022-12-15T01:00:32.457Z,-3.37
2022-12-15T01:05:41.458Z,-3.44
2022-12-15T01:10:50.335Z,-3.44
2022-12-15T01:15:59.352Z,-3.44
2022-12-15T01:21:08.332Z,-3.44
2022-12-15T01:26:17.196Z,-3.44
2022-12-15T01:31:26.319Z,-3.5
2022-12-15T01:36:35.380Z,-3.5
2022-12-15T01:41:44.283Z,-3.56
2022-12-15T01:46:53.506Z,-3.62
2022-12-15T01:52:02.373Z,-3.62
2022-12-15T01:57:11.289Z,-3.5
2022-12-15T02:02:20.537Z,-3.44
2022-12-15T02:07:29.807Z,-3.31
2022-12-15T02:12:38.758Z,-3.25
2022-12-15T02:17:47.769Z,-3.25
2022-12-15T02:22:59.988Z,-3.25
2022-12-15T02:28:08.951Z,-3.25
2022-12-15T02:33:17.911Z,-3.31
2022-12-15T02:38:26.932Z,-3.31
2022-12-15T02:43:36.037Z,-3.37
2022-12-15T02:48:44.979Z,-3.37
2022-12-15T02:53:54.045Z,-3.37
2022-12-15T02:59:03.028Z,-3.37
2022-12-15T03:04:12.103Z,-3.37
2022-12-15T03:09:21.176Z,-3.31
2022-12-15T03:14:30.071Z,-3.31
2022-12-15T03:19:39.156Z,-3.37
2022-12-15T03:24:48.420Z,-3.37
2022-12-15T03:29:57.319Z,-3.37
2022-12-15T03:35:06.125Z,-3.37
2022-12-15T03:40:15.438Z,-3.37
2022-12-15T03:45:24.350Z,-3.44
2022-12-15T03:50:33.195Z,-3.5
2022-12-15T03:55:42.012Z,-3.5
2022-12-15T04:00:50.871Z,-3.56
2022-12-15T04:05:59.886Z,-3.75
2022-12-15T04:11:08.967Z,-3.75
2022-12-15T04:16:19.989Z,-3.87
2022-12-15T04:21:26.730Z,-4
2022-12-15T04:26:35.668Z,-4.19
2022-12-15T04:31:44.692Z,-4.12
2022-12-15T04:36:53.821Z,-3.94
2022-12-15T04:42:02.759Z,-3.87
2022-12-15T04:47:11.786Z,-3.87
2022-12-15T04:52:20.747Z,-3.81
2022-12-15T04:57:29.813Z,-3.87
2022-12-15T05:07:36.670Z,-3.81
2022-12-15T05:12:45.842Z,-3.81
2022-12-15T05:17:54.888Z,-3.81
2022-12-15T05:23:03.896Z,-3.75
2022-12-15T05:28:13.172Z,-3.75
2022-12-15T05:33:21.984Z,-3.81
2022-12-15T05:38:30.845Z,-3.81
2022-12-15T05:43:39.844Z,-3.81
2022-12-15T05:48:48.913Z,-4
2022-12-15T05:53:57.983Z,-4.19
2022-12-15T05:59:06.810Z,-4.37
2022-12-15T06:04:15.851Z,-4.5
2022-12-15T06:09:24.664Z,-4.62
2022-12-15T06:14:33.521Z,-4.75
2022-12-15T06:19:42.654Z,-4.62
2022-12-15T06:24:51.441Z,-4.75
2022-12-15T06:30:00.515Z,-5.06
2022-12-15T06:40:18.374Z,-5.5
2022-12-15T06:45:27.039Z,-5.62
2022-12-15T06:50:35.915Z,-5.62
2022-12-15T06:55:45.205Z,-5.69
2022-12-15T07:00:54.299Z,-5.75
2022-12-15T07:11:12.511Z,-5.44
2022-12-15T07:26:33.144Z,-5.62
2022-12-15T07:41:38.762Z,-5.5
2022-12-15T07:46:49.812Z,-5.56
2022-12-15T07:52:00.967Z,-5.56
2022-12-15T07:57:10.148Z,-5.69
2022-12-15T08:07:24.886Z,-5.69
2022-12-15T08:12:34.202Z,-5.62
2022-12-15T08:17:44.979Z,-5.44
2022-12-15T08:22:54.327Z,-5.19
2022-12-15T08:33:10.644Z,-4.37
2022-12-15T08:38:22.297Z,-4
2022-12-15T08:43:31.484Z,-3.75
2022-12-15T08:48:40.314Z,-3.62
2022-12-15T08:53:50.020Z,-3.62
2022-12-15T08:58:59.154Z,-3.31
2022-12-15T09:04:07.938Z,-3.31
2022-12-15T09:09:16.736Z,-3.5
2022-12-15T09:19:31.360Z,-3.44
2022-12-15T09:24:40.310Z,-3.12
2022-12-15T09:29:49.223Z,-3.25
2022-12-15T09:35:00.015Z,-2.75
2022-12-15T09:40:09.626Z,-2.25
2022-12-15T09:45:19.957Z,-1.87
2022-12-15T09:50:28.321Z,-2.31
2022-12-15T09:55:36.700Z,-2.69
2022-12-15T10:00:48.912Z,-2.81
2022-12-15T10:06:21.948Z,-2.69
2022-12-15T10:11:03.450Z,-2.75
2022-12-15T10:16:12.333Z,-2.75
2022-12-15T10:21:21.286Z,-2.75
2022-12-15T10:26:30.195Z,-2.75
2022-12-15T10:31:39.336Z,-2.31
2022-12-15T10:41:57.793Z,-2
2022-12-15T10:47:06.600Z,-1.81
2022-12-15T10:52:15.490Z,-2
2022-12-15T10:57:24.565Z,-1.94
2022-12-15T11:02:34.020Z,-1.87
2022-12-15T11:07:43.047Z,-1.19
2022-12-15T11:18:02.416Z,0.25
2022-12-15T11:23:11.634Z,0.06
2022-12-15T11:28:20.043Z,-0.62
2022-12-15T11:33:29.082Z,-0.75
2022-12-15T11:38:37.458Z,-1.31
2022-12-15T11:43:46.271Z,-1.69
2022-12-15T11:48:54.828Z,-2
2022-12-15T11:54:03.646Z,-2.12
2022-12-15T11:59:12.821Z,-2.19
2022-12-15T12:04:21.653Z,-2.37
2022-12-15T12:09:30.495Z,-2.31
2022-12-15T12:14:39.549Z,-2.37
2022-12-15T12:19:50.755Z,-2.31
2022-12-15T12:24:57.625Z,-2.25
2022-12-15T12:30:06.670Z,-2.25
2022-12-15T12:35:30.251Z,-2.31
2022-12-15T12:40:24.783Z,-2.25
2022-12-15T12:45:33.506Z,-2.25
2022-12-15T12:50:42.603Z,-2.37
2022-12-15T12:55:51.480Z,-2.37
2022-12-15T13:01:00.560Z,-2.44
2022-12-15T13:06:09.355Z,-2.44
2022-12-15T13:11:18.572Z,-2.25
2022-12-15T13:16:27.463Z,-2.12
2022-12-15T13:21:36.472Z,-2.06
2022-12-15T13:26:45.726Z,-2.06
2022-12-15T13:31:54.979Z,-1.94
2022-12-15T13:42:32.990Z,-1.94
2022-12-15T13:52:19.914Z,-1.94
2022-12-15T13:57:28.990Z,-1.87
2022-12-15T14:02:38.135Z,-1.94
2022-12-15T14:07:51.075Z,-1.94
2022-12-15T14:12:56.024Z,-2.06
2022-12-15T14:18:04.882Z,-2.19
2022-12-15T14:23:13.929Z,-2.25
2022-12-15T14:28:22.728Z,-2.37
2022-12-15T14:33:32.052Z,-2.44
2022-12-15T14:38:40.956Z,-2.44
2022-12-15T14:44:30.873Z,-2.44
2022-12-15T14:49:15.621Z,-2.5
2022-12-15T14:54:24.906Z,-2.5
2022-12-15T14:59:33.730Z,-2.56
2022-12-15T15:04:42.921Z,-2.69
2022-12-15T15:09:51.867Z,-2.62
2022-12-15T15:15:00.982Z,-2.69
2022-12-15T15:20:09.830Z,-2.69
2022-12-15T15:25:18.972Z,-2.69
2022-12-15T15:30:28.049Z,-2.75
2022-12-15T15:35:36.883Z,-2.69
2022-12-15T15:40:45.963Z,-2.75
2022-12-15T15:45:54.915Z,-2.75
2022-12-15T15:51:03.973Z,-2.81
2022-12-15T15:56:12.817Z,-2.81
2022-12-15T16:01:21.925Z,-2.94
2022-12-15T16:06:30.863Z,-2.87
2022-12-15T16:11:39.845Z,-2.94
2022-12-15T16:16:48.780Z,-2.87
2022-12-15T16:21:57.702Z,-2.87
2022-12-15T16:27:06.842Z,-2.81
2022-12-15T16:32:15.981Z,-2.87
2022-12-15T16:37:25.033Z,-2.87
2022-12-15T16:42:34.054Z,-2.87
2022-12-15T16:47:42.941Z,-2.87
2022-12-15T16:52:51.879Z,-2.94
2022-12-15T16:58:00.979Z,-3.06
2022-12-15T17:08:18.929Z,-3.12
2022-12-15T17:13:33.784Z,-3.12
2022-12-15T17:18:36.844Z,-3.06
2022-12-15T17:23:45.767Z,-2.94
2022-12-15T17:28:54.855Z,-2.94
2022-12-15T17:34:06.940Z,-3
2022-12-15T17:39:15.801Z,-3
2022-12-15T20:36:27.636Z,-3.69
2022-12-15T20:41:36.600Z,-3.75
2022-12-15T20:46:45.571Z,-3.81
2022-12-15T20:51:54.598Z,-3.87
2022-12-15T21:02:12.913Z,-3.81
2022-12-15T21:07:21.458Z,-3.75
2022-12-15T21:12:30.310Z,-3.62
2022-12-15T21:17:41.923Z,-3.56
2022-12-15T21:33:06.643Z,-3.56
2022-12-15T21:38:15.539Z,-3.5
2022-12-15T21:43:24.885Z,-3.5
2022-12-15T21:48:34.363Z,-3.44
2022-12-15T21:53:43.295Z,-3.44
2022-12-15T22:03:50.436Z,-3.44
2022-12-15T22:08:59.349Z,-3.44
2022-12-15T22:14:08.536Z,-3.37
2022-12-15T22:19:17.612Z,-3.37
2022-12-15T22:24:26.577Z,-3.31
2022-12-15T22:29:38.494Z,-3.31
2022-12-15T22:34:47.675Z,-3.25
2022-12-15T22:39:56.507Z,-3.19
2022-12-15T22:45:05.579Z,-3.19
2022-12-15T22:50:14.903Z,-3.25
2022-12-15T22:55:23.875Z,-3.37
2022-12-15T23:05:31.029Z,-3.5
2022-12-15T23:10:42.909Z,-3.5
2022-12-15T23:15:51.901Z,-3.56
2022-12-15T23:21:00.938Z,-3.62
2022-12-15T23:26:10.013Z,-3.62
2022-12-15T23:31:18.964Z,-3.69
2022-12-15T23:36:28.101Z,-3.69
2022-12-15T23:41:36.977Z,-3.75
